createdAt,value
2018-12-25T00:01:57.719Z,99828.50
2018-12-25T00:04:29.823Z,99835.17
2018-12-25T00:07:01.824Z,99835.55
2018-12-25T00:09:33.843Z,99835.02
2018-12-25T00:12:05.815Z,99837.91
2018-12-25T00:14:37.817Z,99850.89
2018-12-25T00:17:09.826Z,99853.41
2018-12-25T00:19:41.820Z,99851.62
2018-12-25T00:22:13.788Z,99848.89
2018-12-25T00:24:45.829Z,99852.51
2018-12-25T00:27:17.814Z,99856.13
2018-12-25T00:29:49.856Z,99853.05
2018-12-25T00:32:21.846Z,99852.48
2018-12-25T00:34:53.871Z,99853.61
2018-12-25T00:37:25.855Z,99864.59
2018-12-25T00:39:57.883Z,99867.86
2018-12-25T00:42:29.881Z,99860.64
2018-12-25T00:45:01.837Z,99863.33
2018-12-25T00:47:33.878Z,99864.60
2018-12-25T00:50:05.900Z,99869.84
2018-12-25T00:52:37.936Z,99873.42
2018-12-25T00:55:09.918Z,99881.36
2018-12-25T00:57:41.955Z,99878.50
2018-12-25T01:00:13.953Z,99869.45
2018-12-25T01:02:45.961Z,99865.67
2018-12-25T01:05:17.936Z,99861.18
2018-12-25T01:07:49.963Z,99859.91
2018-12-25T01:10:21.964Z,99850.18
2018-12-25T01:12:53.990Z,99845.12
2018-12-25T01:15:25.951Z,99840.97
2018-12-25T01:17:57.966Z,99832.84
2018-12-25T01:20:30.004Z,99832.83
2018-12-25T01:23:02.014Z,99836.44
2018-12-25T01:25:34.002Z,99830.30
2018-12-25T01:28:06.133Z,99825.98
2018-12-25T01:30:38.170Z,99825.98
2018-12-25T01:33:10.276Z,99825.98
2018-12-25T01:35:42.246Z,99832.48
2018-12-25T01:38:14.292Z,99834.09
2018-12-25T01:40:46.242Z,99835.36
2018-12-25T01:43:18.503Z,99832.80
2018-12-25T01:45:50.473Z,99842.38
2018-12-25T01:48:22.465Z,99837.86
2018-12-25T01:50:54.465Z,99834.23
2018-12-25T01:53:26.472Z,99836.93
2018-12-25T01:55:58.447Z,99835.87
2018-12-25T01:58:30.439Z,99849.91
2018-12-25T02:01:02.419Z,99850.11
2018-12-25T02:03:34.839Z,99868.68
2018-12-25T02:06:06.843Z,99879.10
2018-12-25T02:08:38.899Z,99882.52
2018-12-25T02:11:10.899Z,99895.66
2018-12-25T02:13:42.906Z,99906.66
2018-12-25T02:16:14.888Z,99910.08
2018-12-25T02:18:46.948Z,99911.70
2018-12-25T02:21:18.885Z,99913.53
2018-12-25T02:23:50.900Z,99911.38
2018-12-25T02:26:22.892Z,99904.38
2018-12-25T02:28:54.951Z,99898.44
2018-12-25T02:31:26.955Z,99881.83
2018-12-25T02:33:58.953Z,99877.47
2018-12-25T02:36:30.933Z,99871.00
2018-12-25T02:39:05.772Z,99868.31
2018-12-25T02:41:37.772Z,99860.54
2018-12-25T02:44:09.802Z,99860.91
2018-12-25T02:46:41.804Z,99855.33
2018-12-25T02:49:13.797Z,99857.28
2018-12-25T02:51:45.862Z,99854.76
2018-12-25T02:54:17.821Z,99858.34
2018-12-25T02:56:49.803Z,99858.38
2018-12-25T02:59:21.801Z,99852.61
2018-12-25T03:01:53.791Z,99855.13
2018-12-25T03:04:25.775Z,99855.49
2018-12-25T03:06:57.766Z,99861.64
2018-12-25T03:09:29.741Z,99860.91
2018-12-25T03:12:01.737Z,99858.59
2018-12-25T03:14:33.695Z,99853.34
2018-12-25T03:17:05.695Z,99854.80
2018-12-25T03:19:37.682Z,99852.08
2018-12-25T03:22:09.688Z,99845.40
2018-12-25T03:24:41.663Z,99842.54
2018-12-25T03:27:13.671Z,99838.75
2018-12-25T03:29:45.640Z,99836.96
2018-12-25T03:32:17.656Z,99837.66
2018-12-25T03:34:49.649Z,99840.39
2018-12-25T03:37:21.651Z,99838.22
2018-12-25T03:39:53.705Z,99844.34
2018-12-25T03:42:25.909Z,99844.17
2018-12-25T03:44:57.918Z,99833.71
2018-12-25T03:47:29.974Z,99826.86
2018-12-25T03:50:10.490Z,99832.64
2018-12-25T03:52:35.914Z,99848.13
2018-12-25T03:55:07.918Z,99845.66
2018-12-25T03:57:39.868Z,99851.06
2018-12-25T04:00:11.844Z,99840.94
2018-12-25T04:02:43.837Z,99845.45
2018-12-25T04:05:15.844Z,99854.27
2018-12-25T04:07:47.809Z,99853.56
2018-12-25T04:10:19.822Z,99864.89
2018-12-25T04:12:51.765Z,99859.84
2018-12-25T04:15:23.768Z,99859.64
2018-12-25T04:17:55.755Z,99855.13
2018-12-25T04:20:27.760Z,99855.13
2018-12-25T04:22:59.726Z,99851.91
2018-12-25T04:25:31.735Z,99844.87
2018-12-25T04:28:03.707Z,99853.66
2018-12-25T04:30:35.707Z,99852.97
2018-12-25T04:33:07.688Z,99852.80
2018-12-25T04:35:39.755Z,99855.16
2018-12-25T04:38:11.737Z,99856.59
2018-12-25T04:40:43.746Z,99849.55
2018-12-25T04:43:15.733Z,99845.59
2018-12-25T04:45:47.725Z,99847.95
2018-12-25T04:48:19.716Z,99840.02
2018-12-25T04:50:51.991Z,99843.80
2018-12-25T04:53:23.920Z,99848.85
2018-12-25T04:55:55.936Z,99842.34
2018-12-25T04:58:27.965Z,99830.81
2018-12-25T05:00:59.964Z,99836.27
2018-12-25T05:03:32.035Z,99843.10
2018-12-25T05:06:04.030Z,99844.00
2018-12-25T05:08:36.034Z,99841.48
2018-12-25T05:11:08.012Z,99846.69
2018-12-25T05:13:39.985Z,99858.75
2018-12-25T05:16:11.970Z,99861.27
2018-12-25T05:18:43.963Z,99864.66
2018-12-25T05:21:15.977Z,99872.80
2018-12-25T05:23:47.961Z,99863.38
2018-12-25T05:26:19.909Z,99859.06
2018-12-25T05:28:51.934Z,99867.69
2018-12-25T05:31:23.875Z,99864.44
2018-12-25T05:33:55.873Z,99870.42
2018-12-25T05:36:27.841Z,99866.11
2018-12-25T05:38:59.838Z,99869.01
2018-12-25T05:41:31.807Z,99870.84
2018-12-25T05:44:03.777Z,99877.14
2018-12-25T05:46:35.756Z,99889.94
2018-12-25T05:49:07.779Z,99887.04
2018-12-25T05:51:39.776Z,99889.20
2018-12-25T05:54:11.752Z,99888.50
2018-12-25T05:56:43.882Z,99894.81
2018-12-25T05:59:15.867Z,99888.88
2018-12-25T06:01:47.859Z,99892.66
2018-12-25T06:04:19.868Z,99891.92
2018-12-25T06:06:51.870Z,99884.92
2018-12-25T06:09:23.823Z,99885.66
2018-12-25T06:11:55.825Z,99881.17
2018-12-25T06:14:27.809Z,99884.79
2018-12-25T06:16:59.784Z,99883.66
2018-12-25T06:19:31.755Z,99883.33
2018-12-25T06:22:03.778Z,99881.87
2018-12-25T06:24:35.730Z,99881.70
2018-12-25T06:27:07.717Z,99878.28
2018-12-25T06:29:39.688Z,99870.70
2018-12-25T06:32:11.695Z,99881.34
2018-12-25T06:34:43.652Z,99875.22
2018-12-25T06:37:15.644Z,99875.75
2018-12-25T06:39:47.602Z,99876.65
2018-12-25T06:42:19.582Z,99876.12
2018-12-25T06:44:51.559Z,99873.03
2018-12-25T06:47:23.538Z,99878.64
2018-12-25T06:49:55.547Z,99875.75
2018-12-25T06:52:27.583Z,99879.54
2018-12-25T06:54:59.552Z,99868.54
2018-12-25T06:57:31.577Z,99863.69
2018-12-25T07:00:04.274Z,99863.80
2018-12-25T07:02:36.279Z,99865.63
2018-12-25T07:05:08.235Z,99869.05
2018-12-25T07:07:40.213Z,99875.72
2018-12-25T07:10:12.187Z,99880.20
2018-12-25T07:12:44.186Z,99883.62
2018-12-25T07:15:16.258Z,99886.67
2018-12-25T07:17:48.257Z,99890.98
2018-12-25T07:20:20.248Z,99885.41
2018-12-25T07:22:52.260Z,99904.33
2018-12-25T07:25:24.251Z,99899.25
2018-12-25T07:27:56.227Z,99895.30
2018-12-25T07:30:28.300Z,99887.25
2018-12-25T07:33:00.289Z,99894.60
2018-12-25T07:35:32.317Z,99898.34
2018-12-25T07:38:04.337Z,99897.98
2018-12-25T07:40:36.325Z,99902.33
2018-12-25T07:43:08.336Z,99907.49
2018-12-25T07:45:40.369Z,99910.23
2018-12-25T07:48:12.352Z,99911.91
2018-12-25T07:50:44.375Z,99909.55
2018-12-25T07:53:16.452Z,99911.70
2018-12-25T07:55:48.462Z,99904.34
2018-12-25T07:58:20.443Z,99909.59
2018-12-25T08:00:52.468Z,99904.18
2018-12-25T08:03:24.450Z,99905.11
2018-12-25T08:05:56.435Z,99905.28
2018-12-25T08:08:28.422Z,99906.17
2018-12-25T08:11:00.437Z,99911.06
2018-12-25T08:13:32.551Z,99907.64
2018-12-25T08:16:04.548Z,99901.70
2018-12-25T08:18:36.541Z,99904.38
2018-12-25T08:21:08.602Z,99902.42
2018-12-25T08:23:40.561Z,99909.63
2018-12-25T08:26:12.552Z,99908.69
2018-12-25T08:28:44.524Z,99904.17
2018-12-25T08:31:16.556Z,99907.80
2018-12-25T08:33:48.571Z,99899.20
2018-12-25T08:36:20.615Z,99897.22
2018-12-25T08:38:52.616Z,99905.48
2018-12-25T08:41:24.627Z,99899.86
2018-12-25T08:43:56.624Z,99905.76
2018-12-25T08:46:28.593Z,99913.05
2018-12-25T08:49:00.588Z,99910.22
2018-12-25T08:51:37.653Z,99910.73
2018-12-25T08:54:06.554Z,99908.59
2018-12-25T08:56:38.627Z,99906.66
2018-12-25T08:59:10.634Z,99914.11
2018-12-25T09:01:42.592Z,99898.56
2018-12-25T09:04:14.586Z,99896.28
2018-12-25T09:06:46.565Z,99907.80
2018-12-25T09:09:18.611Z,99921.89
2018-12-25T09:11:50.649Z,99914.72
2018-12-25T09:14:22.658Z,99911.83
2018-12-25T09:16:54.708Z,99913.09
2018-12-25T09:19:26.668Z,99906.95
2018-12-25T09:21:58.696Z,99910.97
2018-12-25T09:24:30.710Z,99909.53
2018-12-25T09:27:02.757Z,99920.36
2018-12-25T09:29:34.848Z,99931.03
2018-12-25T09:32:06.881Z,99932.63
2018-12-25T09:34:38.934Z,99934.28
2018-12-25T09:37:10.933Z,99937.88
2018-12-25T09:39:42.941Z,99942.00
2018-12-25T09:42:14.941Z,99932.63
2018-12-25T09:44:46.931Z,99933.19
2018-12-25T09:47:18.945Z,99929.38
2018-12-25T09:49:50.954Z,99933.86
2018-12-25T09:52:22.977Z,99931.17
2018-12-25T09:54:54.993Z,99940.37
2018-12-25T09:57:27.017Z,99935.88
2018-12-25T09:59:59.016Z,99937.51
2018-12-25T10:02:31.011Z,99933.73
2018-12-25T10:05:03.134Z,99925.27
2018-12-25T10:07:35.130Z,99923.98
2018-12-25T10:10:07.501Z,99935.02
2018-12-25T10:12:39.485Z,99941.34
2018-12-25T10:15:11.512Z,99941.16
2018-12-25T10:17:43.798Z,99946.01
2018-12-25T10:20:15.897Z,99947.10
2018-12-25T10:22:47.892Z,99948.53
2018-12-25T10:25:19.936Z,99948.54
2018-12-25T10:27:52.152Z,99954.50
2018-12-25T10:30:24.166Z,99947.08
2018-12-25T10:32:56.189Z,99936.06
2018-12-25T10:35:28.206Z,99936.81
2018-12-25T10:38:00.226Z,99942.22
2018-12-25T10:40:32.247Z,99936.98
2018-12-25T10:43:04.256Z,99930.98
2018-12-25T10:45:36.247Z,99927.02
2018-12-25T10:48:08.248Z,99924.45
2018-12-25T10:50:41.857Z,99915.95
2018-12-25T10:53:14.023Z,99905.03
2018-12-25T10:55:46.052Z,99903.78
2018-12-25T10:58:18.095Z,99889.47
2018-12-25T11:00:54.154Z,99878.08
2018-12-25T11:03:26.161Z,99888.78
2018-12-25T11:05:58.201Z,99884.15
2018-12-25T11:08:30.274Z,99887.56
2018-12-25T11:11:02.332Z,99880.92
2018-12-25T11:13:34.389Z,99885.95
2018-12-25T11:16:06.454Z,99884.16
2018-12-25T11:18:38.513Z,99883.18
2018-12-25T11:21:10.526Z,99880.45
2018-12-25T11:23:42.609Z,99872.47
2018-12-25T11:26:14.643Z,99860.34
2018-12-25T11:28:46.717Z,99849.69
2018-12-25T11:31:18.748Z,99844.22
2018-12-25T11:33:50.826Z,99820.00
2018-12-25T11:36:22.869Z,99815.12
2018-12-25T11:38:54.912Z,99814.59
2018-12-25T11:41:27.004Z,99820.83
2018-12-25T11:43:59.004Z,99828.77
2018-12-25T11:46:31.022Z,99834.02
2018-12-25T11:49:03.014Z,99835.52
2018-12-25T11:51:35.073Z,99840.51
2018-12-25T11:54:08.498Z,99846.83
2018-12-25T11:56:40.526Z,99850.70
2018-12-25T11:59:12.528Z,99834.37
2018-12-25T12:01:44.629Z,99830.17
2018-12-25T12:04:16.711Z,99818.70
2018-12-25T12:06:48.811Z,99817.84
2018-12-25T12:09:20.782Z,99820.00
2018-12-25T12:11:52.885Z,99829.54
2018-12-25T12:14:24.908Z,99819.44
2018-12-25T12:16:56.920Z,99828.64
2018-12-25T12:19:28.922Z,99838.22
2018-12-25T12:22:00.925Z,99842.30
2018-12-25T12:24:33.066Z,99839.42
2018-12-25T12:27:05.077Z,99842.67
2018-12-25T12:29:37.110Z,99841.41
2018-12-25T12:32:09.158Z,99842.61
2018-12-25T12:34:41.175Z,99842.12
2018-12-25T12:37:13.215Z,99844.46
2018-12-25T12:39:45.191Z,99849.28
2018-12-25T12:42:17.233Z,99853.66
2018-12-25T12:44:49.236Z,99848.35
2018-12-25T12:47:21.257Z,99847.52
2018-12-25T12:49:53.304Z,99847.58
2018-12-25T12:52:25.344Z,99845.39
2018-12-25T12:54:57.365Z,99841.28
2018-12-25T12:57:29.848Z,99849.43
2018-12-25T13:00:01.851Z,99856.52
2018-12-25T13:02:33.859Z,99851.02
2018-12-25T13:05:06.806Z,99850.34
2018-12-25T13:07:38.852Z,99854.49
2018-12-25T13:10:10.829Z,99850.47
2018-12-25T13:12:42.865Z,99851.02
2018-12-25T13:15:14.890Z,99844.30
2018-12-25T13:17:46.979Z,99841.93
2018-12-25T13:20:19.088Z,99843.54
2018-12-25T13:22:54.172Z,99846.13
2018-12-25T13:25:25.165Z,99853.83
2018-12-25T13:27:57.205Z,99860.69
2018-12-25T13:30:29.218Z,99851.82
2018-12-25T13:33:01.247Z,99846.36
2018-12-25T13:35:33.263Z,99850.56
2018-12-25T13:38:05.400Z,99860.84
2018-12-25T13:40:37.537Z,99860.82
2018-12-25T13:43:09.592Z,99869.13
2018-12-25T13:45:41.648Z,99872.72
2018-12-25T13:48:13.631Z,99879.02
2018-12-25T13:50:45.736Z,99882.61
2018-12-25T13:53:17.711Z,99893.27
2018-12-25T13:55:49.726Z,99881.84
2018-12-25T13:58:21.711Z,99882.95
2018-12-25T14:00:53.686Z,99887.41
2018-12-25T14:03:25.707Z,99893.61
2018-12-25T14:05:57.728Z,99897.30
2018-12-25T14:08:29.759Z,99904.38
2018-12-25T14:11:01.793Z,99900.05
2018-12-25T14:13:33.785Z,99897.88
2018-12-25T14:16:05.795Z,99902.44
2018-12-25T14:18:37.898Z,99912.23
2018-12-25T14:21:09.924Z,99909.89
2018-12-25T14:23:41.993Z,99910.97
2018-12-25T14:26:14.051Z,99913.70
2018-12-25T14:28:46.033Z,99912.64
2018-12-25T14:31:18.099Z,99907.25
2018-12-25T14:33:50.154Z,99908.53
2018-12-25T14:36:22.161Z,99909.63
2018-12-25T14:38:54.189Z,99911.28
2018-12-25T14:41:26.220Z,99915.83
2018-12-25T14:44:05.248Z,99911.30
2018-12-25T14:46:32.211Z,99917.80
2018-12-25T14:49:04.207Z,99923.61
2018-12-25T14:51:36.322Z,99923.08
2018-12-25T14:54:08.359Z,99924.87
2018-12-25T14:56:40.386Z,99917.30
2018-12-25T14:59:12.394Z,99919.67
2018-12-25T15:01:44.436Z,99919.67
2018-12-25T15:04:16.500Z,99920.93
2018-12-25T15:06:48.523Z,99918.95
2018-12-25T15:09:20.724Z,99920.56
2018-12-25T15:11:52.720Z,99923.63
2018-12-25T15:14:24.719Z,99925.98
2018-12-25T15:16:56.723Z,99923.27
2018-12-25T15:19:28.768Z,99927.95
2018-12-25T15:22:00.771Z,99933.02
2018-12-25T15:24:32.860Z,99929.22
2018-12-25T15:27:04.865Z,99924.34
2018-12-25T15:29:36.870Z,99929.73
2018-12-25T15:32:08.868Z,99925.95
2018-12-25T15:34:40.910Z,99926.12
2018-12-25T15:37:12.980Z,99929.88
2018-12-25T15:39:45.019Z,99925.88
2018-12-25T15:42:17.023Z,99937.61
2018-12-25T15:44:49.097Z,99939.73
2018-12-25T15:47:21.133Z,99940.78
2018-12-25T15:49:53.165Z,99951.08
2018-12-25T15:52:25.174Z,99953.55
2018-12-25T15:54:57.236Z,99962.17
2018-12-25T15:57:29.236Z,99961.47
2018-12-25T16:00:01.289Z,99957.84
2018-12-25T16:02:33.326Z,99952.42
2018-12-25T16:05:05.517Z,99947.16
2018-12-25T16:07:37.529Z,99941.74
2018-12-25T16:10:09.656Z,99947.48
2018-12-25T16:12:41.658Z,99940.27
2018-12-25T16:15:13.723Z,99944.59
2018-12-25T16:17:45.716Z,99936.64
2018-12-25T16:20:17.714Z,99938.42
2018-12-25T16:22:49.723Z,99948.05
2018-12-25T16:25:21.750Z,99939.72
2018-12-25T16:27:53.719Z,99936.32
2018-12-25T16:30:25.812Z,99936.61
2018-12-25T16:32:57.856Z,99932.09
2018-12-25T16:35:29.889Z,99940.77
2018-12-25T16:38:01.895Z,99942.53
2018-12-25T16:40:33.952Z,99940.87
2018-12-25T16:43:05.994Z,99931.86
2018-12-25T16:45:38.035Z,99937.23
2018-12-25T16:48:10.040Z,99943.91
2018-12-25T16:50:42.087Z,99946.93
2018-12-25T16:53:14.141Z,99941.32
2018-12-25T16:55:46.202Z,99951.74
2018-12-25T16:58:18.286Z,99943.59
2018-12-25T17:00:50.254Z,99943.73
2018-12-25T17:03:22.346Z,99940.90
2018-12-25T17:05:54.463Z,99941.95
2018-12-25T17:08:26.465Z,99937.64
2018-12-25T17:10:58.459Z,99934.55
2018-12-25T17:13:30.540Z,99925.80
2018-12-25T17:16:02.539Z,99921.14
2018-12-25T17:18:34.561Z,99925.82
2018-12-25T17:21:06.553Z,99915.20
2018-12-25T17:23:38.609Z,99914.66
2018-12-25T17:26:10.609Z,99913.38
2018-12-25T17:28:42.651Z,99913.73
2018-12-25T17:31:14.727Z,99912.33
2018-12-25T17:33:46.779Z,99912.84
2018-12-25T17:36:18.841Z,99912.99
2018-12-25T17:38:50.892Z,99910.81
2018-12-25T17:41:22.889Z,99909.50
2018-12-25T17:43:54.942Z,99916.49
2018-12-25T17:46:26.930Z,99919.70
2018-12-25T17:48:58.953Z,99917.67
2018-12-25T17:51:30.984Z,99914.80
2018-12-25T17:54:10.493Z,99917.05
2018-12-25T17:56:37.935Z,99921.78
2018-12-25T17:59:10.282Z,99924.48
2018-12-25T18:01:42.278Z,99920.38
2018-12-25T18:04:14.301Z,99920.38
2018-12-25T18:06:46.311Z,99916.73
2018-12-25T18:09:18.472Z,99923.84
2018-12-25T18:11:50.528Z,99924.69
2018-12-25T18:14:22.553Z,99919.42
2018-12-25T18:16:54.587Z,99907.16
2018-12-25T18:19:26.611Z,99905.91
2018-12-25T18:21:58.629Z,99903.77
2018-12-25T18:24:30.664Z,99904.65
2018-12-25T18:27:02.682Z,99908.60
2018-12-25T18:29:34.718Z,99902.66
2018-12-25T18:32:06.726Z,99912.25
2018-12-25T18:34:38.784Z,99911.73
2018-12-25T18:37:10.786Z,99909.58
2018-12-25T18:39:55.291Z,99905.42
2018-12-25T18:42:27.326Z,99901.17
2018-12-25T18:44:59.336Z,99888.54
2018-12-25T18:47:31.352Z,99882.73
2018-12-25T18:50:04.400Z,99883.45
2018-12-25T18:52:36.395Z,99886.92
2018-12-25T18:55:08.438Z,99889.92
2018-12-25T18:57:40.469Z,99894.52
2018-12-25T19:00:12.466Z,99895.36
2018-12-25T19:02:44.482Z,99881.53
2018-12-25T19:05:16.761Z,99877.48
2018-12-25T19:07:48.735Z,99873.39
2018-12-25T19:10:20.809Z,99881.12
2018-12-25T19:12:52.831Z,99875.70
2018-12-25T19:15:26.283Z,99881.58
2018-12-25T19:17:59.179Z,99887.50
2018-12-25T19:20:31.242Z,99882.84
2018-12-25T19:23:03.228Z,99887.50
2018-12-25T19:25:36.071Z,99892.17
2018-12-25T19:28:08.140Z,99887.67
2018-12-25T19:30:40.482Z,99886.02
2018-12-25T19:33:12.534Z,99889.05
2018-12-25T19:35:44.529Z,99891.97
2018-12-25T19:38:16.803Z,99895.59
2018-12-25T19:40:48.816Z,99894.48
2018-12-25T19:43:20.889Z,99899.63
2018-12-25T19:45:52.988Z,99897.02
2018-12-25T19:48:25.069Z,99893.45
2018-12-25T19:50:57.126Z,99890.55
2018-12-25T19:53:29.204Z,99885.44
2018-12-25T19:56:01.339Z,99889.86
2018-12-25T19:58:33.387Z,99886.68
2018-12-25T20:01:05.394Z,99882.92
2018-12-25T20:03:48.124Z,99881.11
2018-12-25T20:07:07.129Z,99878.40
2018-12-25T20:10:18.077Z,99876.22
2018-12-25T20:13:31.116Z,99882.16
2018-12-25T20:16:49.963Z,99874.13
2018-12-25T20:19:55.088Z,99884.32
2018-12-25T20:23:15.908Z,99874.63
2018-12-25T20:26:35.340Z,99862.41
2018-12-25T20:29:48.919Z,99866.52
2018-12-25T20:33:12.201Z,99864.09
2018-12-25T20:36:29.517Z,99861.00
2018-12-25T20:39:49.581Z,99853.91
2018-12-25T20:42:57.974Z,99850.63
2018-12-25T20:46:07.545Z,99847.35
2018-12-25T20:49:20.383Z,99838.83
2018-12-25T20:52:35.901Z,99837.93
2018-12-25T20:55:54.686Z,99843.83
2018-12-25T20:59:04.430Z,99847.63
2018-12-25T21:02:17.611Z,99844.70
2018-12-25T21:05:32.894Z,99844.11
2018-12-25T21:08:40.901Z,99838.92
2018-12-25T21:11:48.023Z,99837.78
2018-12-25T21:14:48.111Z,99839.95
2018-12-25T21:17:56.130Z,99836.39
2018-12-25T21:21:14.993Z,99826.16
2018-12-25T21:24:23.405Z,99833.34
2018-12-25T21:27:29.676Z,99828.18
2018-12-25T21:30:04.315Z,99817.53
2018-12-25T21:32:38.868Z,99800.75
2018-12-25T21:35:29.747Z,99805.59
2018-12-25T21:38:01.890Z,99797.66
2018-12-25T21:40:33.958Z,99798.48
2018-12-25T21:43:46.787Z,99793.52
2018-12-25T21:46:59.618Z,99798.17
2018-12-25T21:50:12.441Z,99791.86
2018-12-25T21:52:44.497Z,99787.10
2018-12-25T21:55:18.881Z,99790.89
2018-12-25T21:57:51.029Z,99805.69
2018-12-25T22:00:26.517Z,99807.11
2018-12-25T22:03:39.397Z,99802.84
2018-12-25T22:06:11.416Z,99808.37
2018-12-25T22:08:43.528Z,99815.11
2018-12-25T22:11:15.564Z,99813.42
2018-12-25T22:13:47.615Z,99810.54
2018-12-25T22:16:19.838Z,99815.92
2018-12-25T22:18:53.684Z,99817.84
2018-12-25T22:21:25.692Z,99808.60
2018-12-25T22:23:57.754Z,99813.58
2018-12-25T22:26:29.756Z,99809.48
2018-12-25T22:29:01.853Z,99813.45
2018-12-25T22:31:33.913Z,99805.28
2018-12-25T22:34:05.964Z,99798.17
2018-12-25T22:36:38.009Z,99805.76
2018-12-25T22:39:09.981Z,99805.20
2018-12-25T22:41:42.151Z,99804.48
2018-12-25T22:44:14.141Z,99805.34
2018-12-25T22:46:46.189Z,99802.23
2018-12-25T22:49:18.231Z,99801.05
2018-12-25T22:51:50.212Z,99801.20
2018-12-25T22:54:23.478Z,99801.56
2018-12-25T22:56:55.501Z,99788.00
2018-12-25T22:59:27.535Z,99783.20
2018-12-25T23:01:59.553Z,99789.14
2018-12-25T23:04:31.548Z,99779.42
2018-12-25T23:07:03.568Z,99780.03
2018-12-25T23:09:35.529Z,99787.03
2018-12-25T23:12:07.569Z,99786.50
2018-12-25T23:14:39.538Z,99791.14
2018-12-25T23:17:11.563Z,99781.70
2018-12-25T23:19:43.590Z,99776.20
2018-12-25T23:22:15.608Z,99768.04
2018-12-25T23:24:47.713Z,99763.80
2018-12-25T23:27:19.743Z,99764.32
2018-12-25T23:29:51.841Z,99776.56
2018-12-25T23:32:23.983Z,99777.65
2018-12-25T23:34:56.007Z,99782.94
2018-12-25T23:37:28.047Z,99774.16
2018-12-25T23:40:00.047Z,99774.68
2018-12-25T23:42:32.087Z,99772.73
2018-12-25T23:45:04.803Z,99770.77
2018-12-25T23:47:36.786Z,99761.95
2018-12-25T23:50:08.783Z,99760.86
2018-12-25T23:52:40.819Z,99761.32
2018-12-25T23:55:12.826Z,99771.93
2018-12-25T23:57:44.845Z,99759.92
